sensor_id;sensor_type;location;lat;lon;timestamp;temperature;humidity
21734;DHT22;11029;47.820;10.534;2023-06-04T00:02:16;12.50;65.50
21734;DHT22;11029;47.820;10.534;2023-06-04T00:04:43;12.10;67.50
21734;DHT22;11029;47.820;10.534;2023-06-04T00:07:10;12.10;67.40
21734;DHT22;11029;47.820;10.534;2023-06-04T00:09:36;12.00;67.60
21734;DHT22;11029;47.820;10.534;2023-06-04T00:12:03;12.10;66.70
21734;DHT22;11029;47.820;10.534;2023-06-04T00:14:30;12.30;66.70
21734;DHT22;11029;47.820;10.534;2023-06-04T00:16:57;12.40;66.40
21734;DHT22;11029;47.820;10.534;2023-06-04T00:19:24;12.30;66.30
21734;DHT22;11029;47.820;10.534;2023-06-04T00:21:51;12.30;65.90
21734;DHT22;11029;47.820;10.534;2023-06-04T00:24:17;12.20;66.70
21734;DHT22;11029;47.820;10.534;2023-06-04T00:26:44;12.20;66.20
21734;DHT22;11029;47.820;10.534;2023-06-04T00:29:11;12.20;66.30
21734;DHT22;11029;47.820;10.534;2023-06-04T00:31:38;12.20;65.90
21734;DHT22;11029;47.820;10.534;2023-06-04T00:34:05;12.10;66.20
21734;DHT22;11029;47.820;10.534;2023-06-04T00:36:32;12.10;66.20
21734;DHT22;11029;47.820;10.534;2023-06-04T00:38:59;12.10;66.50
21734;DHT22;11029;47.820;10.534;2023-06-04T00:41:26;12.30;64.80
21734;DHT22;11029;47.820;10.534;2023-06-04T00:43:53;12.20;63.90
21734;DHT22;11029;47.820;10.534;2023-06-04T00:46:25;12.20;64.00
21734;DHT22;11029;47.820;10.534;2023-06-04T00:48:54;12.00;65.80
21734;DHT22;11029;47.820;10.534;2023-06-04T00:51:22;11.80;66.30
21734;DHT22;11029;47.820;10.534;2023-06-04T00:53:52;11.80;65.90
21734;DHT22;11029;47.820;10.534;2023-06-04T00:56:19;11.50;66.90
21734;DHT22;11029;47.820;10.534;2023-06-04T00:58:46;11.50;67.30
21734;DHT22;11029;47.820;10.534;2023-06-04T01:01:31;11.40;67.60
21734;DHT22;11029;47.820;10.534;2023-06-04T01:04:00;11.40;67.30
21734;DHT22;11029;47.820;10.534;2023-06-04T01:06:35;11.30;66.70
21734;DHT22;11029;47.820;10.534;2023-06-04T01:09:04;11.30;66.10
21734;DHT22;11029;47.820;10.534;2023-06-04T01:11:40;11.30;66.30
21734;DHT22;11029;47.820;10.534;2023-06-04T01:14:09;11.30;66.60
21734;DHT22;11029;47.820;10.534;2023-06-04T01:16:42;11.30;66.80
21734;DHT22;11029;47.820;10.534;2023-06-04T01:19:39;11.30;66.30
21734;DHT22;11029;47.820;10.534;2023-06-04T01:22:24;11.20;67.00
21734;DHT22;11029;47.820;10.534;2023-06-04T01:25:02;11.20;66.90
21734;DHT22;11029;47.820;10.534;2023-06-04T01:27:30;11.20;66.90
21734;DHT22;11029;47.820;10.534;2023-06-04T01:29:57;11.10;67.30
21734;DHT22;11029;47.820;10.534;2023-06-04T01:32:25;11.00;66.30
21734;DHT22;11029;47.820;10.534;2023-06-04T01:34:51;11.10;66.20
21734;DHT22;11029;47.820;10.534;2023-06-04T01:37:18;11.00;67.40
21734;DHT22;11029;47.820;10.534;2023-06-04T01:39:45;10.90;68.00
21734;DHT22;11029;47.820;10.534;2023-06-04T01:42:12;10.90;68.10
21734;DHT22;11029;47.820;10.534;2023-06-04T01:44:39;11.00;68.00
21734;DHT22;11029;47.820;10.534;2023-06-04T01:47:06;10.90;65.90
21734;DHT22;11029;47.820;10.534;2023-06-04T01:49:34;10.80;66.60
21734;DHT22;11029;47.820;10.534;2023-06-04T01:52:01;10.80;67.20
21734;DHT22;11029;47.820;10.534;2023-06-04T01:54:27;10.90;66.80
21734;DHT22;11029;47.820;10.534;2023-06-04T01:56:56;10.80;67.40
21734;DHT22;11029;47.820;10.534;2023-06-04T01:59:23;10.70;68.30
21734;DHT22;11029;47.820;10.534;2023-06-04T02:01:50;10.70;68.40
21734;DHT22;11029;47.820;10.534;2023-06-04T02:04:16;10.70;67.60
21734;DHT22;11029;47.820;10.534;2023-06-04T02:06:43;10.80;67.10
21734;DHT22;11029;47.820;10.534;2023-06-04T02:09:10;10.70;66.90
21734;DHT22;11029;47.820;10.534;2023-06-04T02:11:37;10.40;69.30
21734;DHT22;11029;47.820;10.534;2023-06-04T02:14:04;10.20;70.40
21734;DHT22;11029;47.820;10.534;2023-06-04T02:16:30;10.20;71.30
21734;DHT22;11029;47.820;10.534;2023-06-04T02:18:59;10.20;71.90
21734;DHT22;11029;47.820;10.534;2023-06-04T02:21:26;10.40;70.70
21734;DHT22;11029;47.820;10.534;2023-06-04T02:23:52;10.50;69.20
21734;DHT22;11029;47.820;10.534;2023-06-04T02:26:20;10.40;69.20
21734;DHT22;11029;47.820;10.534;2023-06-04T02:28:50;10.40;69.30
21734;DHT22;11029;47.820;10.534;2023-06-04T02:31:16;10.50;68.90
21734;DHT22;11029;47.820;10.534;2023-06-04T02:33:43;10.40;68.10
21734;DHT22;11029;47.820;10.534;2023-06-04T02:36:10;10.40;67.70
21734;DHT22;11029;47.820;10.534;2023-06-04T02:38:37;10.30;68.40
21734;DHT22;11029;47.820;10.534;2023-06-04T02:41:04;10.30;68.30
21734;DHT22;11029;47.820;10.534;2023-06-04T02:43:31;10.30;67.80
21734;DHT22;11029;47.820;10.534;2023-06-04T02:45:58;10.30;67.80
21734;DHT22;11029;47.820;10.534;2023-06-04T02:48:25;10.40;67.70
21734;DHT22;11029;47.820;10.534;2023-06-04T02:50:52;10.50;67.20
21734;DHT22;11029;47.820;10.534;2023-06-04T02:53:18;10.60;65.90
21734;DHT22;11029;47.820;10.534;2023-06-04T02:55:45;10.40;65.70
21734;DHT22;11029;47.820;10.534;2023-06-04T02:58:12;10.30;65.30
21734;DHT22;11029;47.820;10.534;2023-06-04T03:00:40;10.20;65.80
21734;DHT22;11029;47.820;10.534;2023-06-04T03:03:07;10.20;66.60
21734;DHT22;11029;47.820;10.534;2023-06-04T03:05:35;10.00;67.90
21734;DHT22;11029;47.820;10.534;2023-06-04T03:08:03;9.60;70.40
21734;DHT22;11029;47.820;10.534;2023-06-04T03:10:30;9.70;69.30
21734;DHT22;11029;47.820;10.534;2023-06-04T03:12:57;9.80;68.60
21734;DHT22;11029;47.820;10.534;2023-06-04T03:15:24;9.90;68.40
21734;DHT22;11029;47.820;10.534;2023-06-04T03:17:51;9.80;68.30
21734;DHT22;11029;47.820;10.534;2023-06-04T03:20:18;9.80;68.30
21734;DHT22;11029;47.820;10.534;2023-06-04T03:22:45;9.70;68.70
21734;DHT22;11029;47.820;10.534;2023-06-04T03:25:13;9.70;68.80
21734;DHT22;11029;47.820;10.534;2023-06-04T03:27:40;9.70;69.30
21734;DHT22;11029;47.820;10.534;2023-06-04T03:30:07;9.80;68.80
21734;DHT22;11029;47.820;10.534;2023-06-04T03:32:54;9.90;68.50
21734;DHT22;11029;47.820;10.534;2023-06-04T03:35:21;10.00;67.60
21734;DHT22;11029;47.820;10.534;2023-06-04T03:37:48;10.00;66.90
21734;DHT22;11029;47.820;10.534;2023-06-04T03:40:14;9.80;67.40
21734;DHT22;11029;47.820;10.534;2023-06-04T03:42:44;9.70;67.10
21734;DHT22;11029;47.820;10.534;2023-06-04T03:45:12;9.70;67.60
21734;DHT22;11029;47.820;10.534;2023-06-04T03:47:39;9.80;67.60
21734;DHT22;11029;47.820;10.534;2023-06-04T03:50:08;9.80;67.30
21734;DHT22;11029;47.820;10.534;2023-06-04T03:52:35;9.90;66.50
21734;DHT22;11029;47.820;10.534;2023-06-04T03:55:03;9.90;66.00
21734;DHT22;11029;47.820;10.534;2023-06-04T03:57:31;9.90;66.20
21734;DHT22;11029;47.820;10.534;2023-06-04T04:00:00;9.90;66.20
21734;DHT22;11029;47.820;10.534;2023-06-04T04:02:26;9.90;66.10
21734;DHT22;11029;47.820;10.534;2023-06-04T04:04:54;9.90;66.60
21734;DHT22;11029;47.820;10.534;2023-06-04T04:07:22;9.90;66.70
21734;DHT22;11029;47.820;10.534;2023-06-04T04:09:51;10.10;66.90
21734;DHT22;11029;47.820;10.534;2023-06-04T04:12:18;10.00;66.70
21734;DHT22;11029;47.820;10.534;2023-06-04T04:14:45;10.00;66.40
21734;DHT22;11029;47.820;10.534;2023-06-04T04:17:16;9.80;67.30
21734;DHT22;11029;47.820;10.534;2023-06-04T04:19:43;9.80;67.40
21734;DHT22;11029;47.820;10.534;2023-06-04T04:22:11;9.90;67.40
21734;DHT22;11029;47.820;10.534;2023-06-04T04:24:38;10.00;67.90
21734;DHT22;11029;47.820;10.534;2023-06-04T04:27:06;10.30;67.60
21734;DHT22;11029;47.820;10.534;2023-06-04T04:29:38;10.30;66.80
21734;DHT22;11029;47.820;10.534;2023-06-04T04:32:06;10.40;66.40
21734;DHT22;11029;47.820;10.534;2023-06-04T04:34:50;10.40;66.00
21734;DHT22;11029;47.820;10.534;2023-06-04T04:37:30;10.40;66.10
21734;DHT22;11029;47.820;10.534;2023-06-04T04:39:57;10.60;66.60
21734;DHT22;11029;47.820;10.534;2023-06-04T04:42:26;10.80;66.70
21734;DHT22;11029;47.820;10.534;2023-06-04T04:44:53;10.90;66.40
21734;DHT22;11029;47.820;10.534;2023-06-04T04:47:23;10.90;66.90
21734;DHT22;11029;47.820;10.534;2023-06-04T04:49:49;10.90;66.50
21734;DHT22;11029;47.820;10.534;2023-06-04T04:52:17;10.90;66.50
21734;DHT22;11029;47.820;10.534;2023-06-04T04:54:45;11.00;66.50
21734;DHT22;11029;47.820;10.534;2023-06-04T04:57:12;11.20;65.80
21734;DHT22;11029;47.820;10.534;2023-06-04T04:59:43;11.50;65.90
21734;DHT22;11029;47.820;10.534;2023-06-04T05:02:11;11.30;67.60
21734;DHT22;11029;47.820;10.534;2023-06-04T05:04:38;11.50;67.30
21734;DHT22;11029;47.820;10.534;2023-06-04T05:07:05;11.70;66.60
21734;DHT22;11029;47.820;10.534;2023-06-04T05:09:31;11.90;66.50
21734;DHT22;11029;47.820;10.534;2023-06-04T05:11:58;12.10;66.30
21734;DHT22;11029;47.820;10.534;2023-06-04T05:14:25;12.20;66.30
21734;DHT22;11029;47.820;10.534;2023-06-04T05:16:52;12.40;66.10
21734;DHT22;11029;47.820;10.534;2023-06-04T05:19:19;12.40;66.30
21734;DHT22;11029;47.820;10.534;2023-06-04T05:21:47;12.70;66.00
21734;DHT22;11029;47.820;10.534;2023-06-04T05:24:15;12.90;65.60
21734;DHT22;11029;47.820;10.534;2023-06-04T05:26:42;13.10;65.50
21734;DHT22;11029;47.820;10.534;2023-06-04T05:29:14;13.40;65.20
21734;DHT22;11029;47.820;10.534;2023-06-04T05:31:43;13.60;64.70
21734;DHT22;11029;47.820;10.534;2023-06-04T05:34:13;13.80;65.00
21734;DHT22;11029;47.820;10.534;2023-06-04T05:36:43;14.00;64.60
21734;DHT22;11029;47.820;10.534;2023-06-04T05:39:10;14.30;64.40
21734;DHT22;11029;47.820;10.534;2023-06-04T05:41:46;14.50;64.30
21734;DHT22;11029;47.820;10.534;2023-06-04T05:44:14;14.70;62.30
21734;DHT22;11029;47.820;10.534;2023-06-04T05:46:41;14.80;63.00
21734;DHT22;11029;47.820;10.534;2023-06-04T05:49:09;14.90;63.10
21734;DHT22;11029;47.820;10.534;2023-06-04T05:51:36;15.10;61.80
21734;DHT22;11029;47.820;10.534;2023-06-04T05:54:03;15.00;62.00
21734;DHT22;11029;47.820;10.534;2023-06-04T05:56:32;15.00;62.40
21734;DHT22;11029;47.820;10.534;2023-06-04T05:59:00;14.90;62.60
21734;DHT22;11029;47.820;10.534;2023-06-04T06:01:27;14.90;63.50
21734;DHT22;11029;47.820;10.534;2023-06-04T06:03:54;14.70;64.40
21734;DHT22;11029;47.820;10.534;2023-06-04T06:06:24;14.80;64.80
21734;DHT22;11029;47.820;10.534;2023-06-04T06:08:51;14.80;65.60
21734;DHT22;11029;47.820;10.534;2023-06-04T06:11:19;14.80;65.60
21734;DHT22;11029;47.820;10.534;2023-06-04T06:13:46;14.90;65.10
21734;DHT22;11029;47.820;10.534;2023-06-04T06:16:14;15.00;65.20
21734;DHT22;11029;47.820;10.534;2023-06-04T06:18:44;15.10;64.70
21734;DHT22;11029;47.820;10.534;2023-06-04T06:21:11;15.30;64.30
21734;DHT22;11029;47.820;10.534;2023-06-04T06:23:38;15.40;64.10
21734;DHT22;11029;47.820;10.534;2023-06-04T06:26:06;15.50;63.80
21734;DHT22;11029;47.820;10.534;2023-06-04T06:28:40;15.80;63.70
21734;DHT22;11029;47.820;10.534;2023-06-04T06:31:07;16.10;62.20
21734;DHT22;11029;47.820;10.534;2023-06-04T06:33:35;16.10;61.30
21734;DHT22;11029;47.820;10.534;2023-06-04T06:36:01;16.40;61.40
21734;DHT22;11029;47.820;10.534;2023-06-04T06:38:28;16.40;61.30
21734;DHT22;11029;47.820;10.534;2023-06-04T06:40:56;16.50;61.40
21734;DHT22;11029;47.820;10.534;2023-06-04T06:43:23;16.50;61.60
21734;DHT22;11029;47.820;10.534;2023-06-04T06:45:51;16.60;62.60
21734;DHT22;11029;47.820;10.534;2023-06-04T06:48:17;16.70;61.90
21734;DHT22;11029;47.820;10.534;2023-06-04T06:50:44;16.80;61.20
21734;DHT22;11029;47.820;10.534;2023-06-04T06:53:11;17.00;61.70
21734;DHT22;11029;47.820;10.534;2023-06-04T06:55:38;17.10;60.60
21734;DHT22;11029;47.820;10.534;2023-06-04T06:58:04;17.20;60.10
21734;DHT22;11029;47.820;10.534;2023-06-04T07:00:31;17.30;59.70
21734;DHT22;11029;47.820;10.534;2023-06-04T07:02:58;17.40;60.40
21734;DHT22;11029;47.820;10.534;2023-06-04T07:05:25;17.50;59.60
21734;DHT22;11029;47.820;10.534;2023-06-04T07:07:52;17.60;58.20
21734;DHT22;11029;47.820;10.534;2023-06-04T07:10:19;17.70;58.00
21734;DHT22;11029;47.820;10.534;2023-06-04T07:12:46;17.80;56.80
21734;DHT22;11029;47.820;10.534;2023-06-04T07:15:12;17.90;56.30
21734;DHT22;11029;47.820;10.534;2023-06-04T07:17:39;18.00;56.10
21734;DHT22;11029;47.820;10.534;2023-06-04T07:20:07;18.00;56.40
21734;DHT22;11029;47.820;10.534;2023-06-04T07:22:35;18.10;56.10
21734;DHT22;11029;47.820;10.534;2023-06-04T07:25:02;18.20;55.70
21734;DHT22;11029;47.820;10.534;2023-06-04T07:27:28;18.30;52.70
21734;DHT22;11029;47.820;10.534;2023-06-04T07:29:55;18.30;53.10
21734;DHT22;11029;47.820;10.534;2023-06-04T07:32:22;18.40;53.20
21734;DHT22;11029;47.820;10.534;2023-06-04T07:34:49;18.50;53.40
21734;DHT22;11029;47.820;10.534;2023-06-04T07:37:16;18.50;53.10
21734;DHT22;11029;47.820;10.534;2023-06-04T07:39:43;18.60;52.50
21734;DHT22;11029;47.820;10.534;2023-06-04T07:42:10;18.70;52.10
21734;DHT22;11029;47.820;10.534;2023-06-04T07:44:37;18.90;51.90
21734;DHT22;11029;47.820;10.534;2023-06-04T07:47:04;18.90;50.80
21734;DHT22;11029;47.820;10.534;2023-06-04T07:49:32;18.90;50.10
21734;DHT22;11029;47.820;10.534;2023-06-04T07:51:58;18.90;49.00
21734;DHT22;11029;47.820;10.534;2023-06-04T07:54:25;19.00;49.20
21734;DHT22;11029;47.820;10.534;2023-06-04T07:56:52;19.00;48.10
21734;DHT22;11029;47.820;10.534;2023-06-04T07:59:23;19.00;45.70
21734;DHT22;11029;47.820;10.534;2023-06-04T08:01:50;19.00;45.50
21734;DHT22;11029;47.820;10.534;2023-06-04T08:04:18;19.20;46.30
21734;DHT22;11029;47.820;10.534;2023-06-04T08:06:45;19.20;46.70
21734;DHT22;11029;47.820;10.534;2023-06-04T08:09:13;19.40;46.80
21734;DHT22;11029;47.820;10.534;2023-06-04T08:11:41;19.40;45.50
21734;DHT22;11029;47.820;10.534;2023-06-04T08:14:12;19.50;44.10
21734;DHT22;11029;47.820;10.534;2023-06-04T08:16:40;19.50;44.60
21734;DHT22;11029;47.820;10.534;2023-06-04T08:19:07;19.40;45.20
21734;DHT22;11029;47.820;10.534;2023-06-04T08:21:34;19.50;48.00
21734;DHT22;11029;47.820;10.534;2023-06-04T08:24:01;19.60;46.20
21734;DHT22;11029;47.820;10.534;2023-06-04T08:26:28;19.50;47.00
21734;DHT22;11029;47.820;10.534;2023-06-04T08:28:55;19.50;46.70
21734;DHT22;11029;47.820;10.534;2023-06-04T08:31:22;19.50;46.30
21734;DHT22;11029;47.820;10.534;2023-06-04T08:33:49;19.50;46.40
21734;DHT22;11029;47.820;10.534;2023-06-04T08:36:16;19.50;45.90
21734;DHT22;11029;47.820;10.534;2023-06-04T08:38:43;19.50;45.00
21734;DHT22;11029;47.820;10.534;2023-06-04T08:41:29;19.60;45.90
21734;DHT22;11029;47.820;10.534;2023-06-04T08:43:57;19.70;45.50
21734;DHT22;11029;47.820;10.534;2023-06-04T08:46:28;19.70;45.30
21734;DHT22;11029;47.820;10.534;2023-06-04T08:48:56;19.80;45.40
21734;DHT22;11029;47.820;10.534;2023-06-04T08:51:27;20.00;45.60
21734;DHT22;11029;47.820;10.534;2023-06-04T08:53:54;20.00;44.20
21734;DHT22;11029;47.820;10.534;2023-06-04T08:56:23;20.10;43.60
21734;DHT22;11029;47.820;10.534;2023-06-04T08:58:51;20.20;43.80
21734;DHT22;11029;47.820;10.534;2023-06-04T09:01:18;20.30;44.20
21734;DHT22;11029;47.820;10.534;2023-06-04T09:03:45;20.20;43.80
21734;DHT22;11029;47.820;10.534;2023-06-04T09:06:12;20.10;42.70
21734;DHT22;11029;47.820;10.534;2023-06-04T09:08:41;19.90;43.00
21734;DHT22;11029;47.820;10.534;2023-06-04T09:11:14;20.00;44.80
21734;DHT22;11029;47.820;10.534;2023-06-04T09:13:42;20.10;42.90
21734;DHT22;11029;47.820;10.534;2023-06-04T09:16:09;20.20;43.60
21734;DHT22;11029;47.820;10.534;2023-06-04T09:18:36;20.30;43.30
21734;DHT22;11029;47.820;10.534;2023-06-04T09:21:08;20.40;42.80
21734;DHT22;11029;47.820;10.534;2023-06-04T09:23:43;20.40;43.90
21734;DHT22;11029;47.820;10.534;2023-06-04T09:26:11;20.40;42.00
21734;DHT22;11029;47.820;10.534;2023-06-04T09:28:42;20.50;42.20
21734;DHT22;11029;47.820;10.534;2023-06-04T09:31:16;20.50;44.50
21734;DHT22;11029;47.820;10.534;2023-06-04T09:33:49;20.60;42.40
21734;DHT22;11029;47.820;10.534;2023-06-04T09:36:16;20.70;43.80
21734;DHT22;11029;47.820;10.534;2023-06-04T09:38:43;20.70;43.00
21734;DHT22;11029;47.820;10.534;2023-06-04T09:41:16;20.50;43.20
21734;DHT22;11029;47.820;10.534;2023-06-04T09:43:43;20.50;44.80
21734;DHT22;11029;47.820;10.534;2023-06-04T09:46:15;20.60;44.60
21734;DHT22;11029;47.820;10.534;2023-06-04T09:48:43;20.80;44.40
21734;DHT22;11029;47.820;10.534;2023-06-04T09:51:12;20.70;43.30
21734;DHT22;11029;47.820;10.534;2023-06-04T09:53:39;20.50;44.10
21734;DHT22;11029;47.820;10.534;2023-06-04T09:56:06;20.40;45.30
21734;DHT22;11029;47.820;10.534;2023-06-04T09:58:35;20.60;43.80
21734;DHT22;11029;47.820;10.534;2023-06-04T10:01:04;20.80;43.60
21734;DHT22;11029;47.820;10.534;2023-06-04T10:03:36;20.90;43.00
21734;DHT22;11029;47.820;10.534;2023-06-04T10:06:05;21.00;42.90
21734;DHT22;11029;47.820;10.534;2023-06-04T10:08:33;21.00;42.10
21734;DHT22;11029;47.820;10.534;2023-06-04T10:11:02;21.20;43.30
21734;DHT22;11029;47.820;10.534;2023-06-04T10:13:35;21.40;41.90
21734;DHT22;11029;47.820;10.534;2023-06-04T10:16:06;21.40;41.80
21734;DHT22;11029;47.820;10.534;2023-06-04T10:18:38;21.50;41.10
21734;DHT22;11029;47.820;10.534;2023-06-04T10:21:06;21.50;41.60
21734;DHT22;11029;47.820;10.534;2023-06-04T10:23:35;21.60;41.10
21734;DHT22;11029;47.820;10.534;2023-06-04T10:26:02;21.60;41.00
21734;DHT22;11029;47.820;10.534;2023-06-04T10:28:29;21.70;41.30
21734;DHT22;11029;47.820;10.534;2023-06-04T10:30:56;21.70;40.20
21734;DHT22;11029;47.820;10.534;2023-06-04T10:33:23;21.90;41.60
21734;DHT22;11029;47.820;10.534;2023-06-04T10:35:53;22.00;40.80
21734;DHT22;11029;47.820;10.534;2023-06-04T10:38:21;22.00;40.20
21734;DHT22;11029;47.820;10.534;2023-06-04T10:40:48;22.10;41.30
21734;DHT22;11029;47.820;10.534;2023-06-04T10:43:15;22.20;40.50
21734;DHT22;11029;47.820;10.534;2023-06-04T10:45:45;22.30;40.90
21734;DHT22;11029;47.820;10.534;2023-06-04T10:48:12;22.40;39.70
21734;DHT22;11029;47.820;10.534;2023-06-04T10:50:52;22.30;39.90
21734;DHT22;11029;47.820;10.534;2023-06-04T10:53:20;22.30;40.60
21734;DHT22;11029;47.820;10.534;2023-06-04T10:55:47;22.30;40.00
21734;DHT22;11029;47.820;10.534;2023-06-04T10:58:14;22.30;40.20
21734;DHT22;11029;47.820;10.534;2023-06-04T11:00:43;22.40;40.10
21734;DHT22;11029;47.820;10.534;2023-06-04T11:03:13;22.60;39.10
21734;DHT22;11029;47.820;10.534;2023-06-04T11:05:42;22.70;39.40
21734;DHT22;11029;47.820;10.534;2023-06-04T11:08:10;22.90;39.10
21734;DHT22;11029;47.820;10.534;2023-06-04T11:10:39;22.80;38.40
21734;DHT22;11029;47.820;10.534;2023-06-04T11:13:07;22.80;38.30
21734;DHT22;11029;47.820;10.534;2023-06-04T11:15:44;22.70;39.80
21734;DHT22;11029;47.820;10.534;2023-06-04T11:18:19;22.30;39.10
21734;DHT22;11029;47.820;10.534;2023-06-04T11:20:57;22.30;39.30
21734;DHT22;11029;47.820;10.534;2023-06-04T11:23:24;22.60;39.20
21734;DHT22;11029;47.820;10.534;2023-06-04T11:25:55;23.00;39.80
21734;DHT22;11029;47.820;10.534;2023-06-04T11:28:22;23.10;38.80
21734;DHT22;11029;47.820;10.534;2023-06-04T11:31:01;23.40;38.20
21734;DHT22;11029;47.820;10.534;2023-06-04T11:33:44;23.70;37.90
21734;DHT22;11029;47.820;10.534;2023-06-04T11:36:26;23.70;37.60
21734;DHT22;11029;47.820;10.534;2023-06-04T11:38:57;23.50;36.70
21734;DHT22;11029;47.820;10.534;2023-06-04T11:41:29;23.30;36.10
21734;DHT22;11029;47.820;10.534;2023-06-04T11:43:57;23.00;36.70
21734;DHT22;11029;47.820;10.534;2023-06-04T11:46:24;23.00;36.90
21734;DHT22;11029;47.820;10.534;2023-06-04T11:48:51;23.00;37.20
21734;DHT22;11029;47.820;10.534;2023-06-04T11:51:22;23.20;38.10
21734;DHT22;11029;47.820;10.534;2023-06-04T11:53:49;23.50;37.90
21734;DHT22;11029;47.820;10.534;2023-06-04T11:56:17;23.50;38.10
21734;DHT22;11029;47.820;10.534;2023-06-04T11:58:44;23.50;36.90
21734;DHT22;11029;47.820;10.534;2023-06-04T12:01:13;23.40;37.40
21734;DHT22;11029;47.820;10.534;2023-06-04T12:03:41;23.40;36.90
21734;DHT22;11029;47.820;10.534;2023-06-04T12:06:12;23.20;37.20
21734;DHT22;11029;47.820;10.534;2023-06-04T12:08:54;23.30;37.60
21734;DHT22;11029;47.820;10.534;2023-06-04T12:11:32;23.20;36.20
21734;DHT22;11029;47.820;10.534;2023-06-04T12:14:03;23.20;37.80
21734;DHT22;11029;47.820;10.534;2023-06-04T12:16:30;23.20;37.00
21734;DHT22;11029;47.820;10.534;2023-06-04T12:19:23;23.20;38.10
21734;DHT22;11029;47.820;10.534;2023-06-04T12:22:07;23.50;38.10
21734;DHT22;11029;47.820;10.534;2023-06-04T12:24:35;23.60;36.60
21734;DHT22;11029;47.820;10.534;2023-06-04T12:27:12;23.60;35.80
21734;DHT22;11029;47.820;10.534;2023-06-04T12:29:39;23.60;36.20
21734;DHT22;11029;47.820;10.534;2023-06-04T12:32:09;23.50;35.70
21734;DHT22;11029;47.820;10.534;2023-06-04T12:34:40;23.40;35.50
21734;DHT22;11029;47.820;10.534;2023-06-04T12:37:07;23.30;35.50
21734;DHT22;11029;47.820;10.534;2023-06-04T12:39:35;23.10;35.00
21734;DHT22;11029;47.820;10.534;2023-06-04T12:42:06;23.00;35.90
21734;DHT22;11029;47.820;10.534;2023-06-04T12:44:35;23.00;36.00
21734;DHT22;11029;47.820;10.534;2023-06-04T12:47:03;23.00;36.30
21734;DHT22;11029;47.820;10.534;2023-06-04T12:49:30;23.10;36.50
21734;DHT22;11029;47.820;10.534;2023-06-04T12:51:56;23.10;37.10
21734;DHT22;11029;47.820;10.534;2023-06-04T12:54:23;23.20;36.90
21734;DHT22;11029;47.820;10.534;2023-06-04T12:56:50;23.30;35.80
21734;DHT22;11029;47.820;10.534;2023-06-04T12:59:17;23.40;35.50
21734;DHT22;11029;47.820;10.534;2023-06-04T13:01:44;23.30;36.00
21734;DHT22;11029;47.820;10.534;2023-06-04T13:04:10;23.30;35.80
21734;DHT22;11029;47.820;10.534;2023-06-04T13:06:37;23.20;36.30
21734;DHT22;11029;47.820;10.534;2023-06-04T13:09:05;23.20;36.70
21734;DHT22;11029;47.820;10.534;2023-06-04T13:11:41;23.20;37.30
21734;DHT22;11029;47.820;10.534;2023-06-04T13:14:09;23.10;35.60
21734;DHT22;11029;47.820;10.534;2023-06-04T13:16:37;23.10;36.20
21734;DHT22;11029;47.820;10.534;2023-06-04T13:19:06;23.20;36.10
21734;DHT22;11029;47.820;10.534;2023-06-04T13:21:33;23.10;35.60
21734;DHT22;11029;47.820;10.534;2023-06-04T13:24:00;23.00;35.00
21734;DHT22;11029;47.820;10.534;2023-06-04T13:26:27;22.90;35.50
21734;DHT22;11029;47.820;10.534;2023-06-04T13:28:54;23.00;36.70
21734;DHT22;11029;47.820;10.534;2023-06-04T13:31:20;23.00;36.00
21734;DHT22;11029;47.820;10.534;2023-06-04T13:33:47;22.70;35.40
21734;DHT22;11029;47.820;10.534;2023-06-04T13:36:14;22.80;36.30
21734;DHT22;11029;47.820;10.534;2023-06-04T13:38:41;22.70;36.50
21734;DHT22;11029;47.820;10.534;2023-06-04T13:41:08;22.80;37.60
21734;DHT22;11029;47.820;10.534;2023-06-04T13:43:36;22.80;36.70
21734;DHT22;11029;47.820;10.534;2023-06-04T13:46:03;22.90;36.90
21734;DHT22;11029;47.820;10.534;2023-06-04T13:48:30;23.00;37.20
21734;DHT22;11029;47.820;10.534;2023-06-04T13:50:57;23.00;36.60
21734;DHT22;11029;47.820;10.534;2023-06-04T13:53:24;23.10;36.50
21734;DHT22;11029;47.820;10.534;2023-06-04T13:55:50;23.30;36.10
21734;DHT22;11029;47.820;10.534;2023-06-04T13:58:25;23.40;36.60
21734;DHT22;11029;47.820;10.534;2023-06-04T14:00:52;23.40;36.20
21734;DHT22;11029;47.820;10.534;2023-06-04T14:03:19;23.40;35.60
21734;DHT22;11029;47.820;10.534;2023-06-04T14:05:46;23.30;36.10
21734;DHT22;11029;47.820;10.534;2023-06-04T14:08:13;23.00;36.80
21734;DHT22;11029;47.820;10.534;2023-06-04T14:10:40;22.90;36.70
21734;DHT22;11029;47.820;10.534;2023-06-04T14:13:08;22.70;36.60
21734;DHT22;11029;47.820;10.534;2023-06-04T14:15:35;22.60;36.50
21734;DHT22;11029;47.820;10.534;2023-06-04T14:18:03;22.60;36.80
21734;DHT22;11029;47.820;10.534;2023-06-04T14:20:30;22.70;38.20
21734;DHT22;11029;47.820;10.534;2023-06-04T14:22:57;22.70;38.60
21734;DHT22;11029;47.820;10.534;2023-06-04T14:25:24;22.60;37.70
21734;DHT22;11029;47.820;10.534;2023-06-04T14:27:51;22.40;38.50
21734;DHT22;11029;47.820;10.534;2023-06-04T14:30:17;22.30;38.60
21734;DHT22;11029;47.820;10.534;2023-06-04T14:32:44;22.30;39.10
21734;DHT22;11029;47.820;10.534;2023-06-04T14:35:11;22.20;38.20
21734;DHT22;11029;47.820;10.534;2023-06-04T14:37:39;22.20;37.80
21734;DHT22;11029;47.820;10.534;2023-06-04T14:40:06;22.20;38.30
21734;DHT22;11029;47.820;10.534;2023-06-04T14:42:33;22.20;38.80
21734;DHT22;11029;47.820;10.534;2023-06-04T14:45:00;22.20;39.60
21734;DHT22;11029;47.820;10.534;2023-06-04T14:47:26;22.10;38.00
21734;DHT22;11029;47.820;10.534;2023-06-04T14:49:53;22.10;38.40
21734;DHT22;11029;47.820;10.534;2023-06-04T14:52:20;22.10;39.00
21734;DHT22;11029;47.820;10.534;2023-06-04T14:54:47;22.00;39.40
21734;DHT22;11029;47.820;10.534;2023-06-04T14:57:14;22.00;39.90
21734;DHT22;11029;47.820;10.534;2023-06-04T14:59:42;22.00;39.20
21734;DHT22;11029;47.820;10.534;2023-06-04T15:02:10;22.00;38.60
21734;DHT22;11029;47.820;10.534;2023-06-04T15:04:36;22.00;38.30
21734;DHT22;11029;47.820;10.534;2023-06-04T15:07:04;22.00;37.70
21734;DHT22;11029;47.820;10.534;2023-06-04T15:09:30;21.90;38.30
21734;DHT22;11029;47.820;10.534;2023-06-04T15:11:57;21.90;38.80
21734;DHT22;11029;47.820;10.534;2023-06-04T15:14:24;21.90;39.50
21734;DHT22;11029;47.820;10.534;2023-06-04T15:16:51;22.00;38.10
21734;DHT22;11029;47.820;10.534;2023-06-04T15:19:17;22.20;38.30
21734;DHT22;11029;47.820;10.534;2023-06-04T15:21:44;22.50;37.50
21734;DHT22;11029;47.820;10.534;2023-06-04T15:24:11;22.60;36.60
21734;DHT22;11029;47.820;10.534;2023-06-04T15:26:38;22.90;36.80